KSAD/SAD METAR and TAF weather

Enter ICAO airport designator
Station Type Date Time Source
KSAD METAR 2019/09/20 19:51 UTC NOAA

KSAD 201951Z AUTO 30009KT 10SM CLR 34/04 A2990 RMK AO2 SLP067 T03390039


Station Type Date Time Source
KSAD Decoded METAR 2019/09/20 19:51 UTC NOAA

SAFFORD MUNICIPAL AIRPORT, AZ, United States (KSAD) 32-51N 109-38W 962M
Sep 20, 2019 - 03:51 PM EDT / 2019.09.20 1951 UTC
Wind: from the WNW (300 degrees) at 10 MPH (9 KT):0
Visibility: 10 mile(s):0
Sky conditions: clear
Temperature: 93.0 F (33.9 C)
Dew Point: 39.0 F (3.9 C)
Relative Humidity: 15%
Pressure (altimeter): 29.9 in. Hg (1012 hPa)
ob: KSAD 201951Z AUTO 30009KT 10SM CLR 34/04 A2990 RMK AO2 SLP067 T03390039
cycle: 20

Station Type Date Time Source
KSAD TAF UTC NOAA

Error!

Example: see airport list